Time;durP1;ratioP1;P1;durP2;ratioP2;P2;SDS_P1;SDS_P2;PMS_P1;PMS_P2;Temp;Humidity;BMP_temperature;BMP_pressure;BME280_temperature;BME280_humidity;BME280_pressure;Samples;Min_cycle;Max_cycle;Signal;HPM_P1;HPM_P2
2022/04/29 00:01:22;;;;;;;;;;;;;;;16.08;70.77;100202.78;4950439;28;19933;-83
2022/04/29 00:03:48;;;;;;;;;;;;;;;15.81;71.37;100199.16;4950314;28;19930;-84
2022/04/29 00:06:14;;;;;;;;;;;;;;;15.83;72.25;100191.97;4949949;28;20316;-83
2022/04/29 00:08:39;;;;;;;;;;;;;;;16.14;71.43;100191.94;4950330;28;19975;-83
2022/04/29 00:11:05;;;;;;;;;;;;;;;16.00;72.33;100178.19;4949130;28;19922;-83
2022/04/29 00:13:30;;;;;;;;;;;;;;;16.07;72.59;100177.09;4949843;28;19952;-83
2022/04/29 00:15:56;;;;;;;;;;;;;;;16.11;73.30;100184.06;4949471;28;20769;-84
2022/04/29 00:18:21;;;;;;;;;;;;;;;16.23;73.34;100189.00;4950071;28;20449;-83
2022/04/29 00:20:49;;;;;;;;;;;;;;;16.16;74.21;100181.25;4948754;28;19929;-83
2022/04/29 00:23:14;;;;;;;;;;;;;;;16.05;75.21;100181.56;4949626;28;20448;-83
2022/04/29 00:25:40;;;;;;;;;;;;;;;15.98;76.31;100182.69;4950030;28;19914;-83
2022/04/29 00:28:06;;;;;;;;;;;;;;;16.00;76.42;100181.72;4948435;28;19928;-83
2022/04/29 00:30:32;;;;;;;;;;;;;;;15.87;77.23;100188.34;4949751;29;20386;-81
2022/04/29 00:32:57;;;;;;;;;;;;;;;15.97;77.22;100184.47;4936561;28;19969;-82
2022/04/29 00:35:23;;;;;;;;;;;;;;;15.97;77.42;100188.94;4932731;28;19918;-82
2022/04/29 00:37:49;;;;;;;;;;;;;;;15.94;77.44;100179.22;4949706;28;19929;-83
2022/04/29 00:40:16;;;;;;;;;;;;;;;15.82;78.52;100169.84;4948477;29;19929;-83
2022/04/29 00:42:41;;;;;;;;;;;;;;;15.44;79.36;100177.06;4949235;28;19965;-83
2022/04/29 00:45:07;;;;;;;;;;;;;;;15.58;78.93;100179.34;4948268;28;20306;-82
2022/04/29 00:47:33;;;;;;;;;;;;;;;15.48;79.18;100175.22;4949745;29;19945;-83
2022/04/29 00:49:58;;;;;;;;;;;;;;;15.68;78.33;100161.38;4948763;28;19922;-83
2022/04/29 00:52:24;;;;;;;;;;;;;;;15.78;78.02;100151.34;4948276;28;19941;-82
2022/04/29 00:54:52;;;;;;;;;;;;;;;15.65;78.05;100159.66;4949091;28;19918;-82
2022/04/29 00:57:35;;;;;;;;;;;;;;;15.75;77.91;100160.25;4947591;28;20531;-82
2022/04/29 01:00:05;;;;;;;;;;;;;;;15.46;78.81;100161.06;4948522;28;20313;-82
2022/04/29 01:02:31;;;;;;;;;;;;;;;15.42;79.99;100162.97;4948910;29;19918;-83
2022/04/29 01:05:02;;;;;;;;;;;;;;;15.04;80.44;100164.84;4948941;28;20557;-83
2022/04/29 01:07:28;;;;;;;;;;;;;;;14.80;81.54;100159.25;4948300;28;20376;-83
2022/04/29 01:09:54;;;;;;;;;;;;;;;14.77;81.29;100164.66;4948611;28;19961;-83
2022/04/29 01:12:19;;;;;;;;;;;;;;;14.70;81.31;100163.03;4947675;28;19922;-83
2022/04/29 01:14:44;;;;;;;;;;;;;;;14.56;80.61;100159.81;4948197;28;20345;-83
2022/04/29 01:17:10;;;;;;;;;;;;;;;14.56;82.29;100152.72;4949055;28;19922;-83
2022/04/29 01:19:37;;;;;;;;;;;;;;;14.27;82.84;100150.75;4947700;29;19925;-83
2022/04/29 01:22:03;;;;;;;;;;;;;;;14.21;83.06;100149.13;4949076;28;20389;-82
2022/04/29 01:24:29;;;;;;;;;;;;;;;14.33;82.43;100154.16;4948915;28;19973;-82
2022/04/29 01:26:54;;;;;;;;;;;;;;;14.28;82.82;100157.81;4948146;29;19965;-83
2022/04/29 01:29:20;;;;;;;;;;;;;;;14.02;84.04;100155.75;4948529;28;19923;-83
2022/04/29 01:31:46;;;;;;;;;;;;;;;14.36;83.94;100154.97;4949117;28;20455;-83
2022/04/29 01:34:11;;;;;;;;;;;;;;;14.23;84.02;100154.41;4948415;28;20004;-84
2022/04/29 01:36:37;;;;;;;;;;;;;;;14.27;83.67;100156.06;4945189;28;19922;-83
2022/04/29 01:39:02;;;;;;;;;;;;;;;14.00;83.78;100149.59;4947535;28;20016;-82
2022/04/29 01:41:27;;;;;;;;;;;;;;;14.27;83.69;100145.44;4947929;28;20036;-83
2022/04/29 01:43:53;;;;;;;;;;;;;;;14.11;84.07;100145.78;4948494;28;19914;-83
2022/04/29 01:46:18;;;;;;;;;;;;;;;14.26;83.75;100149.88;4948683;28;19922;-83
2022/04/29 01:48:43;;;;;;;;;;;;;;;14.30;83.26;100148.03;4949323;28;19918;-82
2022/04/29 01:51:09;;;;;;;;;;;;;;;14.19;83.88;100137.66;4948680;28;19997;-82
2022/04/29 01:53:34;;;;;;;;;;;;;;;14.18;83.88;100138.59;4947579;28;19922;-82
2022/04/29 01:55:59;;;;;;;;;;;;;;;14.25;82.45;100131.34;4940280;28;20307;-84
2022/04/29 01:58:25;;;;;;;;;;;;;;;14.26;83.67;100136.63;4947664;28;19981;-82
2022/04/29 02:00:50;;;;;;;;;;;;;;;14.40;81.82;100135.44;4946540;29;19941;-83
2022/04/29 02:03:16;;;;;;;;;;;;;;;14.40;82.55;100138.09;4948089;28;20317;-82
2022/04/29 02:05:41;;;;;;;;;;;;;;;14.31;83.07;100137.38;4951380;28;19942;-83
2022/04/29 02:08:07;;;;;;;;;;;;;;;14.45;82.32;100138.84;4951579;28;20376;-82
2022/04/29 02:10:32;;;;;;;;;;;;;;;14.39;82.37;100136.34;4951322;29;19929;-84
2022/04/29 02:12:58;;;;;;;;;;;;;;;14.32;82.53;100128.50;4951755;28;19918;-83
2022/04/29 02:15:23;;;;;;;;;;;;;;;14.30;81.71;100129.44;4951078;28;19929;-83
2022/04/29 02:17:49;;;;;;;;;;;;;;;14.48;80.96;100130.81;4952146;28;20028;-83
2022/04/29 02:20:14;;;;;;;;;;;;;;;14.53;80.47;100146.63;4950380;28;19957;-83
2022/04/29 02:22:40;;;;;;;;;;;;;;;14.60;80.56;100148.22;4952125;28;20336;-82
2022/04/29 02:25:06;;;;;;;;;;;;;;;14.62;80.14;100143.78;4949509;28;19973;-82
2022/04/29 02:27:31;;;;;;;;;;;;;;;14.54;79.61;100148.38;4951242;28;19985;-83
2022/04/29 02:29:57;;;;;;;;;;;;;;;14.50;79.39;100144.91;4950736;28;19977;-83
2022/04/29 02:32:22;;;;;;;;;;;;;;;14.66;79.22;100145.47;4950636;29;20361;-82
2022/04/29 02:34:47;;;;;;;;;;;;;;;14.53;79.20;100146.63;4951866;29;19928;-84
2022/04/29 02:37:13;;;;;;;;;;;;;;;14.51;78.69;100150.19;4950640;28;19914;-83
2022/04/29 02:39:38;;;;;;;;;;;;;;;14.26;80.27;100149.88;4951273;28;19926;-83
2022/04/29 02:42:04;;;;;;;;;;;;;;;14.52;79.10;100156.38;4950722;28;19981;-83
2022/04/29 02:44:29;;;;;;;;;;;;;;;14.39;79.59;100153.13;4950101;28;19922;-83
2022/04/29 02:47:06;;;;;;;;;;;;;;;14.30;80.11;100150.69;4951727;28;19926;-83
2022/04/29 02:49:32;;;;;;;;;;;;;;;14.31;80.52;100158.59;4949887;28;20017;-83
2022/04/29 02:51:57;;;;;;;;;;;;;;;14.33;79.07;100162.13;4951171;28;20012;-83
2022/04/29 02:54:23;;;;;;;;;;;;;;;14.27;80.30;100161.38;4950164;28;20005;-83
2022/04/29 02:56:51;;;;;;;;;;;;;;;14.28;80.09;100161.31;4944190;28;20309;-83
2022/04/29 02:59:17;;;;;;;;;;;;;;;14.17;79.62;100168.66;4949349;29;19914;-84
2022/04/29 03:01:43;;;;;;;;;;;;;;;14.23;79.39;100168.53;4952082;28;19922;-83
2022/04/29 03:04:08;;;;;;;;;;;;;;;14.39;79.04;100168.19;4951609;28;19925;-82
2022/04/29 03:06:34;;;;;;;;;;;;;;;14.24;78.39;100172.94;4950404;28;19922;-82
2022/04/29 03:08:59;;;;;;;;;;;;;;;14.33;79.12;100172.72;4951705;28;20687;-84
2022/04/29 03:11:25;;;;;;;;;;;;;;;14.22;78.98;100173.88;4951958;28;19919;-86
2022/04/29 03:13:50;;;;;;;;;;;;;;;14.12;78.89;100179.38;4950657;29;19914;-85
2022/04/29 03:16:15;;;;;;;;;;;;;;;14.11;79.34;100188.25;4950912;28;19950;-84
2022/04/29 03:18:42;;;;;;;;;;;;;;;14.17;79.18;100179.28;4950601;29;20347;-84
2022/04/29 03:21:08;;;;;;;;;;;;;;;14.09;79.56;100186.53;4951532;28;19922;-83
2022/04/29 03:23:33;;;;;;;;;;;;;;;14.10;78.99;100182.97;4951795;29;19930;-84
2022/04/29 03:25:59;;;;;;;;;;;;;;;13.96;79.30;100184.16;4950555;28;19930;-85
2022/04/29 03:28:24;;;;;;;;;;;;;;;14.05;79.43;100187.50;4951945;28;19954;-86
2022/04/29 03:30:50;;;;;;;;;;;;;;;14.27;77.61;100187.91;4951983;28;19925;-85
2022/04/29 03:33:15;;;;;;;;;;;;;;;14.15;77.78;100189.06;4951923;28;19918;-85
2022/04/29 03:35:42;;;;;;;;;;;;;;;14.25;76.92;100189.72;4951717;28;19980;-86
2022/04/29 03:38:07;;;;;;;;;;;;;;;14.32;77.41;100194.84;4951278;29;19918;-82
2022/04/29 03:40:33;;;;;;;;;;;;;;;14.40;76.65;100192.03;4950780;28;19930;-82
2022/04/29 03:42:58;;;;;;;;;;;;;;;14.17;76.81;100187.25;4951787;28;19925;-83
2022/04/29 03:45:25;;;;;;;;;;;;;;;14.32;76.43;100189.56;4951331;28;19922;-91
2022/04/29 03:47:50;;;;;;;;;;;;;;;14.37;76.51;100192.09;4950295;29;19914;-88
2022/04/29 03:50:15;;;;;;;;;;;;;;;14.37;75.91;100185.94;4951783;28;19933;-88
2022/04/29 03:52:45;;;;;;;;;;;;;;;14.36;76.31;100193.00;4951156;28;19918;-86
2022/04/29 03:55:10;;;;;;;;;;;;;;;14.26;76.37;100191.47;4951107;28;19922;-87
2022/04/29 03:57:35;;;;;;;;;;;;;;;14.33;76.17;100201.94;4950758;28;19922;-86
2022/04/29 04:00:01;;;;;;;;;;;;;;;14.43;76.05;100196.41;4949140;29;19965;-86
2022/04/29 04:02:26;;;;;;;;;;;;;;;14.56;75.20;100194.34;4950748;29;20008;-87
2022/04/29 04:04:51;;;;;;;;;;;;;;;14.27;76.29;100206.47;4950129;29;20393;-87
2022/04/29 04:07:17;;;;;;;;;;;;;;;14.30;76.20;100201.09;4950758;28;19914;-88
2022/04/29 04:09:42;;;;;;;;;;;;;;;14.33;76.37;100209.88;4951842;28;19918;-87
2022/04/29 04:12:08;;;;;;;;;;;;;;;14.61;74.86;100206.63;4959077;28;20313;-87
2022/04/29 04:14:33;;;;;;;;;;;;;;;14.62;74.37;100208.34;4969979;28;20013;-86
2022/04/29 04:16:59;;;;;;;;;;;;;;;14.68;74.65;100210.88;4969425;28;19922;-87
2022/04/29 04:19:24;;;;;;;;;;;;;;;14.92;74.34;100215.63;4957251;28;20017;-87
2022/04/29 04:21:49;;;;;;;;;;;;;;;14.71;74.45;100217.91;4946535;29;20440;-88
2022/04/29 04:24:14;;;;;;;;;;;;;;;14.91;74.45;100213.91;4950566;29;20420;-88
2022/04/29 04:26:40;;;;;;;;;;;;;;;14.80;74.07;100222.13;4949705;28;20458;-87
2022/04/29 04:29:05;;;;;;;;;;;;;;;14.94;74.97;100222.66;4950404;28;19969;-87
2022/04/29 04:31:31;;;;;;;;;;;;;;;15.14;73.46;100221.31;4946003;29;19923;-89
2022/04/29 04:33:56;;;;;;;;;;;;;;;15.19;74.45;100217.59;4936671;29;20427;-89
2022/04/29 04:36:21;;;;;;;;;;;;;;;15.35;74.73;100218.09;4949670;28;20298;-87
2022/04/29 04:38:47;;;;;;;;;;;;;;;15.38;72.30;100225.09;4950871;28;20309;-86
2022/04/29 04:41:16;;;;;;;;;;;;;;;15.44;72.90;100221.41;4949867;28;19925;-87
2022/04/29 04:43:41;;;;;;;;;;;;;;;15.65;71.59;100214.63;4949801;29;20313;-88
2022/04/29 04:46:07;;;;;;;;;;;;;;;15.86;71.48;100218.50;4950910;29;19918;-87
2022/04/29 04:48:32;;;;;;;;;;;;;;;15.87;71.95;100213.13;4951064;28;19922;-88
2022/04/29 04:51:01;;;;;;;;;;;;;;;15.95;68.47;100218.22;4949033;29;20480;-88
2022/04/29 04:53:27;;;;;;;;;;;;;;;16.03;70.06;100218.00;4948998;29;19929;-85
2022/04/29 04:55:53;;;;;;;;;;;;;;;16.17;70.35;100218.47;4949244;28;19914;-87
2022/04/29 04:58:18;;;;;;;;;;;;;;;16.27;69.58;100222.59;4948692;29;20707;-87
2022/04/29 05:00:43;;;;;;;;;;;;;;;16.18;68.26;100225.53;4949098;29;19993;-90
2022/04/29 05:03:09;;;;;;;;;;;;;;;16.04;66.29;100223.28;4950685;28;19954;-93
2022/04/29 05:05:34;;;;;;;;;;;;;;;16.04;67.55;100222.44;4950177;29;19922;-89
2022/04/29 05:07:59;;;;;;;;;;;;;;;16.17;66.17;100222.94;4948555;29;20473;-90
2022/04/29 05:10:25;;;;;;;;;;;;;;;16.22;66.88;100219.22;4948999;29;19923;-92
2022/04/29 05:12:51;;;;;;;;;;;;;;;16.19;66.27;100229.06;4949073;28;19923;-90
2022/04/29 05:15:16;;;;;;;;;;;;;;;16.56;67.41;100228.84;4950397;28;19972;-93
2022/04/29 05:17:42;;;;;;;;;;;;;;;16.77;66.29;100221.94;4948872;29;19953;-89
2022/04/29 05:20:09;;;;;;;;;;;;;;;16.66;62.59;100224.09;4948937;28;19918;-90
2022/04/29 05:22:34;;;;;;;;;;;;;;;16.72;62.87;100223.03;4945093;29;19974;-87
2022/04/29 05:25:00;;;;;;;;;;;;;;;16.75;63.37;100223.78;4946182;28;20382;-91
2022/04/29 05:27:25;;;;;;;;;;;;;;;16.80;63.91;100228.97;4928456;29;19974;-86
2022/04/29 05:29:50;;;;;;;;;;;;;;;16.99;63.53;100235.50;4948799;28;20462;-89
2022/04/29 05:32:16;;;;;;;;;;;;;;;16.67;60.98;100230.28;4948761;28;20660;-86
2022/04/29 05:34:42;;;;;;;;;;;;;;;16.57;62.35;100232.38;4949091;28;19918;-88
2022/04/29 05:37:07;;;;;;;;;;;;;;;16.69;62.23;100231.13;4948947;28;19918;-87
2022/04/29 05:42:22;;;;;;;;;;;;;;;16.54;58.24;100221.81;4949363;29;20065;-89
2022/04/29 05:44:48;;;;;;;;;;;;;;;16.73;59.29;100227.41;4949288;28;19976;-91
2022/04/29 05:47:13;;;;;;;;;;;;;;;16.64;61.77;100226.78;4948852;28;19918;-89
2022/04/29 05:49:39;;;;;;;;;;;;;;;17.07;59.39;100227.25;4949494;28;19919;-90
2022/04/29 05:52:05;;;;;;;;;;;;;;;17.03;58.30;100227.41;4947970;28;19985;-89
2022/04/29 05:54:31;;;;;;;;;;;;;;;16.79;59.22;100222.78;4948199;28;20476;-88
2022/04/29 05:56:59;;;;;;;;;;;;;;;17.03;59.26;100233.59;4948863;28;19926;-86
2022/04/29 05:59:24;;;;;;;;;;;;;;;17.06;57.07;100229.97;4948209;29;19922;-88
2022/04/29 06:01:50;;;;;;;;;;;;;;;17.16;56.56;100231.38;4948227;28;19925;-86
2022/04/29 06:04:16;;;;;;;;;;;;;;;17.13;57.04;100234.13;4948563;28;19929;-89
2022/04/29 06:06:42;;;;;;;;;;;;;;;17.07;58.55;100239.69;4947872;29;19933;-88
2022/04/29 06:09:07;;;;;;;;;;;;;;;17.25;58.98;100240.88;4947217;29;19915;-91
2022/04/29 06:11:33;;;;;;;;;;;;;;;17.74;57.52;100233.81;4946991;29;19918;-89
2022/04/29 06:13:58;;;;;;;;;;;;;;;17.59;56.54;100240.56;4949925;28;19920;-86
2022/04/29 06:16:24;;;;;;;;;;;;;;;17.43;55.68;100250.91;4947432;28;19957;-88
2022/04/29 06:18:49;;;;;;;;;;;;;;;17.39;55.47;100251.91;4948701;28;19958;-89
2022/04/29 06:21:16;;;;;;;;;;;;;;;17.29;54.26;100247.84;4947287;29;19954;-89
2022/04/29 06:23:42;;;;;;;;;;;;;;;17.35;54.16;100243.16;4949320;28;19926;-89
2022/04/29 06:26:07;;;;;;;;;;;;;;;17.72;53.90;100238.34;4950577;29;19989;-90
2022/04/29 06:28:33;;;;;;;;;;;;;;;17.66;55.15;100250.09;4949691;28;19952;-90
2022/04/29 06:30:58;;;;;;;;;;;;;;;18.13;53.27;100243.97;4956225;28;19927;-87
2022/04/29 06:33:23;;;;;;;;;;;;;;;18.25;54.70;100246.19;4950647;29;19918;-92
2022/04/29 06:35:50;;;;;;;;;;;;;;;18.33;54.14;100253.03;4950043;29;20374;-93
2022/04/29 06:38:16;;;;;;;;;;;;;;;18.17;53.24;100255.44;4947723;29;19946;-91
2022/04/29 06:40:41;;;;;;;;;;;;;;;18.06;53.45;100262.03;4947293;29;19973;-91
2022/04/29 06:43:06;;;;;;;;;;;;;;;18.00;51.80;100248.03;4949148;28;19966;-89
2022/04/29 06:45:32;;;;;;;;;;;;;;;18.35;53.98;100253.84;4948825;28;19923;-90
2022/04/29 06:47:57;;;;;;;;;;;;;;;18.90;51.46;100254.38;4949377;28;19925;-92
2022/04/29 06:50:22;;;;;;;;;;;;;;;18.67;52.65;100244.56;4949606;28;20321;-92
2022/04/29 06:52:48;;;;;;;;;;;;;;;18.28;50.72;100250.53;4952106;28;20009;-92
2022/04/29 06:55:13;;;;;;;;;;;;;;;18.19;53.35;100248.22;4952564;28;20393;-94
2022/04/29 06:57:38;;;;;;;;;;;;;;;18.71;50.98;100248.00;4951560;29;19965;-90
2022/04/29 07:00:04;;;;;;;;;;;;;;;18.72;51.84;100247.94;4952577;28;19934;-91
2022/04/29 07:02:31;;;;;;;;;;;;;;;18.74;50.05;100246.06;4952786;28;19914;-91
2022/04/29 07:04:56;;;;;;;;;;;;;;;19.33;50.77;100257.06;4952826;28;20385;-91
2022/04/29 07:07:22;;;;;;;;;;;;;;;19.54;50.15;100259.75;4952424;28;19925;-92
2022/04/29 07:09:49;;;;;;;;;;;;;;;19.24;50.82;100252.97;4952710;28;20463;-91
2022/04/29 07:12:14;;;;;;;;;;;;;;;19.16;50.22;100255.13;4952266;28;20030;-91
2022/04/29 07:14:39;;;;;;;;;;;;;;;19.37;52.78;100253.34;4952571;28;20375;-91
2022/04/29 07:17:07;;;;;;;;;;;;;;;19.39;49.86;100263.97;4952004;28;19920;-88
2022/04/29 07:19:33;;;;;;;;;;;;;;;19.30;51.22;100268.75;4952696;28;19998;-90
2022/04/29 07:21:58;;;;;;;;;;;;;;;19.20;51.71;100262.09;4951960;28;20373;-88
2022/04/29 07:24:24;;;;;;;;;;;;;;;19.71;50.98;100259.91;4952344;28;19914;-90
2022/04/29 07:26:49;;;;;;;;;;;;;;;20.07;50.58;100258.38;4952275;29;19914;-88
2022/04/29 07:29:14;;;;;;;;;;;;;;;20.34;46.55;100253.53;4950794;28;19926;-90
2022/04/29 07:31:40;;;;;;;;;;;;;;;20.54;51.26;100253.50;4951670;28;20357;-90
2022/04/29 07:34:05;;;;;;;;;;;;;;;20.65;47.85;100254.78;4951144;28;20083;-89
2022/04/29 07:42:06;;;;;;;;;;;;;;;20.45;46.81;100256.59;4917109;28;19946;-88
2022/04/29 07:44:31;;;;;;;;;;;;;;;19.85;46.42;100256.66;4951674;28;20333;-88
2022/04/29 07:46:57;;;;;;;;;;;;;;;20.29;48.70;100259.09;4950346;28;20656;-88
2022/04/29 07:49:23;;;;;;;;;;;;;;;20.66;49.34;100256.53;4951530;28;19918;-88
2022/04/29 07:51:48;;;;;;;;;;;;;;;20.69;50.98;100243.84;4950658;28;19918;-88
2022/04/29 07:54:14;;;;;;;;;;;;;;;20.95;46.72;100243.53;4950796;28;19918;-88
2022/04/29 07:56:39;;;;;;;;;;;;;;;20.35;46.93;100250.78;4950653;28;20312;-88
2022/04/29 07:59:04;;;;;;;;;;;;;;;19.84;47.96;100258.44;4951008;28;19973;-88
2022/04/29 08:01:30;;;;;;;;;;;;;;;20.15;47.41;100249.03;4950952;28;19919;-88
2022/04/29 08:03:55;;;;;;;;;;;;;;;20.37;48.09;100254.28;4949611;28;19914;-88
2022/04/29 08:06:21;;;;;;;;;;;;;;;20.95;49.02;100251.59;4950727;28;20373;-88
2022/04/29 08:08:47;;;;;;;;;;;;;;;20.77;45.47;100250.66;4950483;28;19941;-87
2022/04/29 08:11:12;;;;;;;;;;;;;;;21.01;46.84;100244.09;4950086;28;19922;-88
2022/04/29 08:13:38;;;;;;;;;;;;;;;21.57;46.99;100244.88;4951240;28;20791;-87
2022/04/29 08:16:04;;;;;;;;;;;;;;;21.76;46.36;100242.06;4950253;28;19922;-88
2022/04/29 08:18:29;;;;;;;;;;;;;;;21.41;46.39;100251.94;4950814;28;20009;-88
2022/04/29 08:20:56;;;;;;;;;;;;;;;21.60;45.39;100254.59;4950319;28;20009;-88
2022/04/29 08:23:21;;;;;;;;;;;;;;;21.22;45.24;100252.00;4950701;28;20008;-88
2022/04/29 08:25:47;;;;;;;;;;;;;;;20.47;46.30;100256.53;4949742;28;20456;-88
2022/04/29 08:28:12;;;;;;;;;;;;;;;19.65;47.67;100257.50;4950663;28;19954;-87
2022/04/29 08:30:37;;;;;;;;;;;;;;;19.73;51.81;100241.97;4951029;28;20009;-87
2022/04/29 08:33:03;;;;;;;;;;;;;;;20.25;49.89;100253.97;4950469;28;20312;-89
2022/04/29 08:35:29;;;;;;;;;;;;;;;19.71;48.84;100243.84;4950831;28;19919;-89
2022/04/29 08:37:56;;;;;;;;;;;;;;;19.61;49.74;100250.53;4949465;28;19922;-89
2022/04/29 08:40:22;;;;;;;;;;;;;;;19.14;50.16;100247.16;4950282;29;19977;-87
2022/04/29 08:42:48;;;;;;;;;;;;;;;19.85;53.46;100251.31;4949457;28;19939;-89
2022/04/29 08:45:14;;;;;;;;;;;;;;;19.77;49.34;100242.72;4949835;28;20356;-88
2022/04/29 08:47:41;;;;;;;;;;;;;;;20.09;50.51;100235.91;4950230;28;19968;-90
2022/04/29 08:50:12;;;;;;;;;;;;;;;20.15;50.86;100235.63;4950261;28;19921;-89
2022/04/29 08:52:38;;;;;;;;;;;;;;;20.89;49.09;100232.16;4950129;28;19976;-88
2022/04/29 09:00:33;;;;;;;;;;;;;;;21.03;48.18;100227.94;4963563;29;20001;-87
2022/04/29 09:03:02;;;;;;;;;;;;;;;20.91;49.76;100224.94;4964851;28;19915;-87
2022/04/29 09:05:31;;;;;;;;;;;;;;;21.09;47.79;100223.13;4965682;29;19937;-87
2022/04/29 09:08:00;;;;;;;;;;;;;;;21.12;49.18;100214.06;4958595;29;20009;-91
2022/04/29 09:10:34;;;;;;;;;;;;;;;21.50;50.24;100215.75;4950700;28;19925;-87
2022/04/29 09:13:28;;;;;;;;;;;;;;;21.39;49.30;100218.94;4950571;28;19914;-90
2022/04/29 09:15:58;;;;;;;;;;;;;;;21.28;47.80;100216.81;4941515;28;19976;-90
2022/04/29 09:18:42;;;;;;;;;;;;;;;21.85;51.73;100213.03;4949016;29;19973;-89
2022/04/29 09:21:12;;;;;;;;;;;;;;;21.89;50.02;100207.41;4946350;28;20013;-87
2022/04/29 09:23:43;;;;;;;;;;;;;;;22.30;49.26;100201.59;4929214;29;20286;-89
2022/04/29 09:26:19;;;;;;;;;;;;;;;21.98;46.19;100206.91;4930622;29;20738;-90
2022/04/29 09:28:45;;;;;;;;;;;;;;;21.85;47.70;100204.97;4930339;29;19915;-89
2022/04/29 09:31:10;;;;;;;;;;;;;;;22.25;51.54;100202.78;4932078;29;19925;-89
2022/04/29 09:33:37;;;;;;;;;;;;;;;22.15;45.60;100202.41;4931999;29;19918;-87
2022/04/29 09:36:03;;;;;;;;;;;;;;;21.92;48.58;100196.50;4930282;29;19982;-89
2022/04/29 09:41:20;;;;;;;;;;;;;;;22.27;45.27;100192.81;4968323;28;20414;-89
2022/04/29 09:43:47;;;;;;;;;;;;;;;22.53;45.91;100192.22;4968642;28;19925;-87
2022/04/29 09:46:13;;;;;;;;;;;;;;;22.46;49.37;100198.94;4968866;28;19922;-89
2022/04/29 09:48:59;;;;;;;;;;;;;;;22.28;45.55;100191.88;4954279;28;19922;-90
2022/04/29 09:51:39;;;;;;;;;;;;;;;22.51;44.82;100185.22;4949569;28;19920;-90
2022/04/29 09:54:08;;;;;;;;;;;;;;;22.64;49.45;100185.38;4938463;28;20037;-88
2022/04/29 09:56:34;;;;;;;;;;;;;;;22.84;45.43;100187.78;4938104;28;20364;-92
2022/04/29 09:58:59;;;;;;;;;;;;;;;22.71;46.66;100184.94;4949344;28;19919;-91
2022/04/29 10:01:25;;;;;;;;;;;;;;;22.32;48.98;100178.22;4948634;28;19914;-89
2022/04/29 10:03:50;;;;;;;;;;;;;;;22.55;43.69;100178.69;4944733;28;20017;-88
2022/04/29 10:06:18;;;;;;;;;;;;;;;22.76;46.83;100183.81;4932337;28;19922;-87
2022/04/29 10:08:44;;;;;;;;;;;;;;;23.00;49.40;100174.31;4949258;28;19915;-90
2022/04/29 10:11:10;;;;;;;;;;;;;;;22.99;44.98;100169.88;4947468;29;19941;-90
2022/04/29 10:13:35;;;;;;;;;;;;;;;22.97;43.19;100162.84;4949452;28;20005;-90
2022/04/29 10:16:01;;;;;;;;;;;;;;;22.57;46.10;100171.44;4947097;28;19973;-91
2022/04/29 10:21:24;;;;;;;;;;;;;;;22.21;47.05;100169.81;4877079;29;20448;-90
2022/04/29 10:23:50;;;;;;;;;;;;;;;22.39;46.62;100164.41;4933643;29;19922;-89
2022/04/29 10:26:16;;;;;;;;;;;;;;;22.15;46.93;100160.31;4949334;28;19920;-88
2022/04/29 10:28:42;;;;;;;;;;;;;;;22.07;45.23;100167.06;4951977;28;19929;-87
2022/04/29 10:31:09;;;;;;;;;;;;;;;22.09;45.17;100166.03;4952770;28;20384;-88
2022/04/29 10:33:36;;;;;;;;;;;;;;;22.62;47.13;100158.59;4952719;29;19918;-87
2022/04/29 10:36:10;;;;;;;;;;;;;;;22.90;44.39;100159.66;4952067;28;20017;-87
2022/04/29 10:38:39;;;;;;;;;;;;;;;22.02;43.76;100159.25;4953067;28;19946;-88
2022/04/29 10:41:10;;;;;;;;;;;;;;;21.58;42.71;100160.72;4951782;28;20016;-88
2022/04/29 10:43:51;;;;;;;;;;;;;;;22.07;45.01;100148.25;4952243;28;20360;-89
2022/04/29 10:46:20;;;;;;;;;;;;;;;22.48;47.77;100153.16;4951783;28;19929;-89
2022/04/29 10:48:45;;;;;;;;;;;;;;;23.01;46.19;100151.81;4950820;29;20374;-88
2022/04/29 10:51:14;;;;;;;;;;;;;;;22.89;40.95;100148.06;4951450;28;19918;-87
2022/04/29 10:53:41;;;;;;;;;;;;;;;23.07;45.01;100139.81;4951569;28;19954;-88
2022/04/29 10:56:25;;;;;;;;;;;;;;;23.14;47.02;100134.97;4950581;29;20378;-88
2022/04/29 10:58:50;;;;;;;;;;;;;;;22.90;44.38;100138.16;4950889;29;19920;-88
2022/04/29 11:01:27;;;;;;;;;;;;;;;23.17;39.17;100138.38;4952190;28;20005;-88
2022/04/29 11:03:53;;;;;;;;;;;;;;;22.85;41.12;100141.09;4952534;28;19965;-87
2022/04/29 11:06:18;;;;;;;;;;;;;;;23.27;47.32;100138.66;4951487;28;20008;-88
2022/04/29 11:08:44;;;;;;;;;;;;;;;23.76;43.81;100132.06;4952043;28;19925;-87
2022/04/29 11:11:10;;;;;;;;;;;;;;;23.59;44.13;100131.28;4951523;28;19918;-88
2022/04/29 11:13:37;;;;;;;;;;;;;;;23.72;42.60;100133.22;4950916;29;20677;-87
2022/04/29 11:16:12;;;;;;;;;;;;;;;23.56;43.78;100134.16;4949528;28;19976;-88
2022/04/29 11:18:38;;;;;;;;;;;;;;;23.60;43.07;100132.16;4951734;28;20009;-88
2022/04/29 11:26:45;;;;;;;;;;;;;;;22.81;43.23;100130.63;4951939;29;19925;-87
2022/04/29 11:29:10;;;;;;;;;;;;;;;23.05;43.83;100118.41;4951004;28;20092;-87
2022/04/29 11:31:36;;;;;;;;;;;;;;;22.14;42.49;100126.31;4951726;28;20041;-87
2022/04/29 11:34:06;;;;;;;;;;;;;;;22.44;41.08;100119.31;4951563;28;20389;-86
2022/04/29 11:36:31;;;;;;;;;;;;;;;21.96;42.01;100122.84;4951688;28;19925;-87
2022/04/29 11:38:56;;;;;;;;;;;;;;;21.93;44.06;100125.69;4951088;28;19922;-90
2022/04/29 11:41:24;;;;;;;;;;;;;;;22.01;43.04;100111.84;4949942;29;19942;-89
2022/04/29 11:43:50;;;;;;;;;;;;;;;21.73;44.22;100110.69;4951475;28;20005;-88
2022/04/29 11:46:16;;;;;;;;;;;;;;;22.13;43.83;100104.94;4949773;29;19918;-88
2022/04/29 11:48:57;;;;;;;;;;;;;;;22.17;41.31;100096.59;4951426;28;19921;-89
2022/04/29 11:51:23;;;;;;;;;;;;;;;22.28;42.75;100104.06;4951196;28;19965;-88
2022/04/29 11:53:56;;;;;;;;;;;;;;;21.67;40.99;100108.34;4949848;29;20356;-89
2022/04/29 11:56:22;;;;;;;;;;;;;;;21.53;41.95;100108.22;4950140;28;19976;-88
2022/04/29 11:58:47;;;;;;;;;;;;;;;21.64;43.04;100104.03;4951217;28;20345;-88
2022/04/29 12:01:15;;;;;;;;;;;;;;;21.97;44.05;100103.09;4951315;28;19922;-90
2022/04/29 12:03:46;;;;;;;;;;;;;;;21.66;42.25;100106.63;4951453;28;19998;-90
2022/04/29 12:06:11;;;;;;;;;;;;;;;21.60;41.98;100094.41;4950803;28;20420;-91
2022/04/29 12:08:37;;;;;;;;;;;;;;;21.87;40.95;100096.50;4951156;28;19918;-91
2022/04/29 12:11:04;;;;;;;;;;;;;;;21.98;40.70;100096.78;4950886;28;19950;-91
2022/04/29 12:13:30;;;;;;;;;;;;;;;22.50;40.08;100089.41;4951462;28;19940;-91
2022/04/29 12:15:56;;;;;;;;;;;;;;;21.80;41.86;100089.75;4956203;29;19918;-89
2022/04/29 12:18:36;;;;;;;;;;;;;;;22.24;44.29;100089.03;4955473;28;20008;-90
2022/04/29 12:21:01;;;;;;;;;;;;;;;22.44;41.67;100082.56;4950873;28;19926;-90
2022/04/29 12:23:31;;;;;;;;;;;;;;;22.64;40.91;100085.91;4950482;28;20161;-88
2022/04/29 12:25:58;;;;;;;;;;;;;;;22.69;40.71;100084.69;4949881;29;19964;-89
2022/04/29 12:28:26;;;;;;;;;;;;;;;22.81;40.59;100072.31;4951354;28;19987;-91
2022/04/29 12:36:44;;;;;;;;;;;;;;;22.33;40.66;100077.81;4951697;28;20068;-90
2022/04/29 12:39:10;;;;;;;;;;;;;;;22.31;41.12;100071.66;4949291;29;19937;-90
2022/04/29 12:41:35;;;;;;;;;;;;;;;22.15;41.67;100073.44;4950183;28;19918;-90
2022/04/29 12:44:11;;;;;;;;;;;;;;;22.10;42.22;100070.19;4949925;28;19945;-88
2022/04/29 12:46:36;;;;;;;;;;;;;;;22.10;42.29;100067.50;4948982;29;19949;-88
2022/04/29 12:49:02;;;;;;;;;;;;;;;21.91;42.42;100070.38;4950306;28;19926;-87
2022/04/29 12:51:28;;;;;;;;;;;;;;;21.92;44.02;100064.91;4950157;28;20294;-87
2022/04/29 12:53:58;;;;;;;;;;;;;;;21.89;43.92;100062.38;4949625;28;19981;-87
2022/04/29 12:56:35;;;;;;;;;;;;;;;21.85;43.82;100049.22;4949697;28;19934;-87
2022/04/29 12:59:02;;;;;;;;;;;;;;;21.69;44.36;100057.25;4950369;28;20009;-88
2022/04/29 13:01:38;;;;;;;;;;;;;;;21.84;44.50;100056.41;4950607;28;20766;-88
2022/04/29 13:04:04;;;;;;;;;;;;;;;21.68;44.66;100058.22;4950141;28;20652;-89